Terminal Aerodrome Forecast
Issued by NWS North Platte, NE

Home | Current Version | Previous Version | Graphics & Text | Print | Product List | Glossary On
Versions: 1 2 3 4 5 6 7 8 9 10 11 12
000
FTUS43 KLBF 181700
TAFVTN
TAF
KVTN 181726Z 1818/1918 19024G33KT P6SM SCT150 SCT300
     FM190300 18017G25KT P6SM SCT120 SCT300
     FM191300 36012KT P6SM BKN120 BKN200=

USA.gov is the U.S. government's official web portal to all federal, state and local government web resources and services.